createdAt,value
2022-11-07T00:00:09.452Z,0.00
2022-11-07T00:01:09.437Z,0.00
2022-11-07T00:02:09.533Z,0.00
2022-11-07T00:03:09.490Z,0.00
2022-11-07T00:04:09.404Z,0.00
2022-11-07T00:05:09.391Z,0.00
2022-11-07T00:06:09.385Z,0.00
2022-11-07T00:07:09.370Z,0.00
2022-11-07T00:08:09.357Z,0.00
2022-11-07T00:09:09.349Z,0.00
2022-11-07T00:10:09.336Z,0.00
2022-11-07T00:11:09.325Z,0.00
2022-11-07T00:12:09.467Z,0.00
2022-11-07T00:13:09.302Z,0.00
2022-11-07T00:14:09.293Z,0.00
2022-11-07T00:15:09.279Z,0.00
2022-11-07T00:16:09.269Z,0.00
2022-11-07T00:17:09.259Z,0.00
2022-11-07T00:18:09.285Z,0.00
2022-11-07T00:19:09.238Z,0.00
2022-11-07T00:20:09.227Z,0.00
2022-11-07T00:21:09.216Z,0.00
2022-11-07T00:22:09.204Z,0.00
2022-11-07T00:23:09.192Z,0.00
2022-11-07T00:24:09.211Z,0.00
2022-11-07T00:25:09.170Z,0.00
2022-11-07T00:26:09.159Z,0.00
2022-11-07T00:27:09.199Z,0.00
2022-11-07T00:28:09.155Z,0.00
2022-11-07T00:29:09.125Z,0.00
2022-11-07T00:30:09.130Z,0.00
2022-11-07T00:31:09.112Z,0.00
2022-11-07T00:32:09.092Z,0.00
2022-11-07T00:33:09.083Z,0.00
2022-11-07T00:34:09.070Z,0.00
2022-11-07T00:35:09.057Z,0.00
2022-11-07T00:36:09.054Z,0.00
2022-11-07T00:37:09.036Z,0.00
2022-11-07T00:38:09.027Z,0.00
2022-11-07T00:39:09.017Z,0.00
2022-11-07T00:40:09.005Z,0.00
2022-11-07T00:41:08.992Z,0.00
2022-11-07T00:42:08.986Z,0.00
2022-11-07T00:43:08.972Z,0.00
2022-11-07T00:44:08.978Z,0.00
2022-11-07T00:45:08.951Z,0.00
2022-11-07T00:46:08.938Z,0.00
2022-11-07T00:47:08.925Z,0.00
2022-11-07T00:48:08.934Z,0.00
2022-11-07T00:49:08.903Z,0.00
2022-11-07T00:50:08.891Z,0.00
2022-11-07T00:51:08.886Z,0.00
2022-11-07T00:52:08.873Z,0.00
2022-11-07T00:53:08.859Z,0.00
2022-11-07T00:54:08.854Z,0.00
2022-11-07T00:55:08.835Z,0.00
2022-11-07T00:56:08.826Z,0.00
2022-11-07T00:57:08.814Z,0.00
2022-11-07T00:58:13.561Z,0.00
2022-11-07T00:59:09.838Z,0.00
2022-11-07T01:00:08.799Z,0.00
2022-11-07T01:01:08.771Z,0.00
2022-11-07T01:02:08.877Z,0.00
2022-11-07T01:03:08.748Z,0.00
2022-11-07T01:04:08.738Z,0.00
2022-11-07T01:05:08.732Z,0.00
2022-11-07T01:06:08.714Z,0.00
2022-11-07T01:07:08.706Z,0.00
2022-11-07T01:08:08.693Z,0.00
2022-11-07T01:09:08.682Z,0.00
2022-11-07T01:10:08.671Z,0.00
2022-11-07T01:11:08.665Z,0.00
2022-11-07T01:12:08.648Z,0.00
2022-11-07T01:13:08.635Z,0.00
2022-11-07T01:14:08.626Z,0.00
2022-11-07T01:15:08.619Z,0.00
2022-11-07T01:16:08.628Z,0.00
2022-11-07T01:17:08.599Z,0.00
2022-11-07T01:18:08.582Z,0.00
2022-11-07T01:19:08.574Z,0.00
2022-11-07T01:20:08.561Z,0.00
2022-11-07T01:21:12.196Z,0.00
2022-11-07T01:22:09.542Z,0.00
2022-11-07T01:23:08.525Z,0.00
2022-11-07T01:24:08.514Z,0.00
2022-11-07T01:25:08.505Z,0.00
2022-11-07T01:26:08.492Z,0.00
2022-11-07T01:27:08.482Z,0.00
2022-11-07T01:28:08.485Z,0.00
2022-11-07T01:29:08.460Z,0.00
2022-11-07T01:30:08.449Z,0.00
2022-11-07T01:31:08.438Z,0.00
2022-11-07T01:32:08.445Z,0.00
2022-11-07T01:33:08.415Z,0.00
2022-11-07T01:34:08.435Z,0.00
2022-11-07T01:35:08.394Z,0.00
2022-11-07T01:36:08.383Z,0.00
2022-11-07T01:37:08.372Z,0.00
2022-11-07T01:38:08.360Z,0.00
2022-11-07T01:39:08.351Z,0.00
2022-11-07T01:40:08.358Z,0.00
2022-11-07T01:41:08.326Z,0.00
2022-11-07T01:42:08.322Z,0.00
2022-11-07T01:43:08.304Z,0.00
2022-11-07T01:44:08.297Z,0.00
2022-11-07T01:45:08.285Z,0.00
2022-11-07T01:46:08.277Z,0.00
2022-11-07T01:47:08.260Z,0.00
2022-11-07T01:48:08.274Z,0.00
2022-11-07T01:49:08.242Z,0.00
2022-11-07T01:50:08.228Z,0.00
2022-11-07T01:51:08.217Z,0.00
2022-11-07T01:52:08.211Z,0.00
2022-11-07T01:53:08.193Z,0.00
2022-11-07T01:54:08.183Z,0.00
2022-11-07T01:55:08.173Z,0.00
2022-11-07T01:56:08.160Z,0.00
2022-11-07T01:57:08.149Z,0.00
2022-11-07T01:58:08.150Z,0.00
2022-11-07T01:59:08.128Z,0.00
2022-11-07T02:00:08.117Z,0.00
2022-11-07T02:01:08.106Z,0.00
2022-11-07T02:02:08.244Z,0.00
2022-11-07T02:03:08.083Z,0.00
2022-11-07T02:04:08.125Z,0.00
2022-11-07T02:05:08.062Z,0.00
2022-11-07T02:06:08.051Z,0.00
2022-11-07T02:07:08.039Z,0.00
2022-11-07T02:08:08.030Z,0.00
2022-11-07T02:09:08.018Z,0.00
2022-11-07T02:10:08.040Z,0.00
2022-11-07T02:11:07.996Z,0.00
2022-11-07T02:12:07.984Z,0.00
2022-11-07T02:13:07.973Z,0.00
2022-11-07T02:14:07.961Z,0.00
2022-11-07T02:15:07.952Z,0.00
2022-11-07T02:16:07.946Z,0.00
2022-11-07T02:17:07.929Z,0.00
2022-11-07T02:18:07.917Z,0.00
2022-11-07T02:19:07.906Z,0.00
2022-11-07T02:20:07.912Z,0.00
2022-11-07T02:21:07.887Z,0.00
2022-11-07T02:22:07.883Z,0.00
2022-11-07T02:23:07.862Z,0.00
2022-11-07T02:24:07.849Z,0.00
2022-11-07T02:25:07.840Z,0.00
2022-11-07T02:26:07.828Z,0.00
2022-11-07T02:27:07.817Z,0.00
2022-11-07T02:28:07.812Z,0.00
2022-11-07T02:29:07.796Z,0.00
2022-11-07T02:30:07.784Z,0.00
2022-11-07T02:31:07.772Z,0.00
2022-11-07T02:32:07.761Z,0.00
2022-11-07T02:33:07.751Z,0.00
2022-11-07T02:34:07.746Z,0.00
2022-11-07T02:35:07.729Z,0.00
2022-11-07T02:36:07.734Z,0.00
2022-11-07T02:37:07.707Z,0.00
2022-11-07T02:38:07.695Z,0.00
2022-11-07T02:39:07.684Z,0.00
2022-11-07T02:40:07.695Z,0.00
2022-11-07T02:41:07.662Z,0.00
2022-11-07T02:42:07.650Z,0.00
2022-11-07T02:43:07.639Z,0.00
2022-11-07T02:44:07.630Z,0.00
2022-11-07T02:45:07.617Z,0.00
2022-11-07T02:46:07.635Z,0.00
2022-11-07T02:47:07.596Z,0.00
2022-11-07T02:48:07.584Z,0.00
2022-11-07T02:49:07.574Z,0.00
2022-11-07T02:50:07.562Z,0.00
2022-11-07T02:51:07.551Z,0.00
2022-11-07T02:52:07.588Z,0.00
2022-11-07T02:53:07.529Z,0.00
2022-11-07T02:54:07.519Z,0.00
2022-11-07T02:55:07.508Z,0.00
2022-11-07T02:56:07.500Z,0.00
2022-11-07T02:57:07.484Z,0.00
2022-11-07T02:58:07.482Z,0.00
2022-11-07T02:59:07.465Z,0.00
2022-11-07T03:00:07.456Z,0.00
2022-11-07T03:01:07.440Z,0.00
2022-11-07T03:02:07.654Z,0.00
2022-11-07T03:03:07.419Z,0.00
2022-11-07T03:04:07.413Z,0.00
2022-11-07T03:05:07.395Z,0.00
2022-11-07T03:06:07.386Z,0.00
2022-11-07T03:07:07.375Z,0.00
2022-11-07T03:08:07.385Z,0.00
2022-11-07T03:09:07.353Z,0.00
2022-11-07T03:10:07.378Z,0.00
2022-11-07T03:11:07.330Z,0.00
2022-11-07T03:12:07.320Z,0.00
2022-11-07T03:13:07.307Z,0.00
2022-11-07T03:14:07.296Z,0.00
2022-11-07T03:15:07.340Z,0.00
2022-11-07T03:16:07.280Z,0.00
2022-11-07T03:17:07.265Z,0.00
2022-11-07T03:18:07.252Z,0.00
2022-11-07T03:19:07.241Z,0.00
2022-11-07T03:20:07.230Z,0.00
2022-11-07T03:21:07.219Z,0.00
2022-11-07T03:22:07.226Z,0.00
2022-11-07T03:23:07.197Z,0.00
2022-11-07T03:24:07.204Z,0.00
2022-11-07T03:25:07.189Z,0.00
2022-11-07T03:26:07.166Z,0.00
2022-11-07T03:27:07.153Z,0.00
2022-11-07T03:28:07.171Z,0.00
2022-11-07T03:29:07.130Z,0.00
2022-11-07T03:30:07.119Z,0.00
2022-11-07T03:31:07.109Z,0.00
2022-11-07T03:32:07.096Z,0.00
2022-11-07T03:33:07.087Z,0.00
2022-11-07T03:34:07.084Z,0.00
2022-11-07T03:35:07.065Z,0.00
2022-11-07T03:36:07.053Z,0.00
2022-11-07T03:37:07.042Z,0.00
2022-11-07T03:38:07.030Z,0.00
2022-11-07T03:39:07.020Z,0.00
2022-11-07T03:40:07.034Z,0.00
2022-11-07T03:41:07.005Z,0.00
2022-11-07T03:42:06.993Z,0.00
2022-11-07T03:43:06.976Z,0.00
2022-11-07T03:44:06.972Z,0.00
2022-11-07T03:45:06.959Z,0.00
2022-11-07T03:46:06.962Z,0.00
2022-11-07T03:47:06.931Z,0.00
2022-11-07T03:48:06.922Z,0.00
2022-11-07T03:49:06.909Z,0.00
2022-11-07T03:50:06.899Z,0.00
2022-11-07T03:51:06.887Z,0.00
2022-11-07T03:52:06.892Z,0.00
2022-11-07T03:53:06.865Z,0.00
2022-11-07T03:54:06.854Z,0.00
2022-11-07T03:55:06.845Z,0.00
2022-11-07T03:56:06.980Z,0.00
2022-11-07T03:57:06.824Z,0.00
2022-11-07T03:58:06.816Z,0.00
2022-11-07T03:59:06.798Z,0.00
2022-11-07T04:00:06.788Z,0.00
2022-11-07T04:01:06.776Z,0.00
2022-11-07T04:02:06.974Z,0.00
2022-11-07T04:03:06.754Z,0.00
2022-11-07T04:04:06.772Z,0.00
2022-11-07T04:05:06.737Z,0.00
2022-11-07T04:06:06.721Z,0.00
2022-11-07T04:07:06.710Z,0.00
2022-11-07T04:08:06.700Z,0.00
2022-11-07T04:09:06.688Z,0.00
2022-11-07T04:10:06.684Z,0.00
2022-11-07T04:11:06.666Z,0.00
2022-11-07T04:12:06.673Z,0.00
2022-11-07T04:13:06.644Z,0.00
2022-11-07T04:14:06.631Z,0.00
2022-11-07T04:15:06.621Z,0.00
2022-11-07T04:16:06.632Z,0.00
2022-11-07T04:17:06.599Z,0.00
2022-11-07T04:18:06.594Z,0.00
2022-11-07T04:19:06.577Z,0.00
2022-11-07T04:20:06.565Z,0.00
2022-11-07T04:21:06.555Z,0.00
2022-11-07T04:22:06.551Z,0.00
2022-11-07T04:23:06.534Z,0.00
2022-11-07T04:24:06.522Z,0.00
2022-11-07T04:25:06.521Z,0.00
2022-11-07T04:26:06.499Z,0.00
2022-11-07T04:27:06.489Z,0.00
2022-11-07T04:28:06.512Z,0.00
2022-11-07T04:29:06.467Z,0.00
2022-11-07T04:30:06.455Z,0.00
2022-11-07T04:31:06.444Z,0.00
2022-11-07T04:32:06.435Z,0.00
2022-11-07T04:33:06.425Z,0.00
2022-11-07T04:34:06.441Z,0.00
2022-11-07T04:35:06.401Z,0.00
2022-11-07T04:36:06.393Z,0.00
2022-11-07T04:37:06.379Z,0.00
2022-11-07T04:38:06.366Z,0.00
2022-11-07T04:39:06.356Z,0.00
2022-11-07T04:40:06.365Z,0.00
2022-11-07T04:41:06.333Z,0.00
2022-11-07T04:42:06.322Z,0.00
2022-11-07T04:43:06.317Z,0.00
2022-11-07T04:44:06.421Z,0.00
2022-11-07T04:45:06.288Z,0.00
2022-11-07T04:46:06.285Z,0.00
2022-11-07T04:47:06.269Z,0.00
2022-11-07T04:48:06.258Z,0.00
2022-11-07T04:49:06.247Z,0.00
2022-11-07T04:50:06.234Z,0.00
2022-11-07T04:51:06.227Z,0.00
2022-11-07T04:52:06.228Z,0.00
2022-11-07T04:53:06.200Z,0.00
2022-11-07T04:54:06.190Z,0.00
2022-11-07T04:55:06.180Z,0.00
2022-11-07T04:56:06.166Z,0.00
2022-11-07T04:57:06.156Z,0.00
2022-11-07T04:58:06.154Z,0.00
2022-11-07T04:59:06.137Z,0.00
2022-11-07T05:00:06.140Z,0.00
2022-11-07T05:01:06.111Z,0.00
2022-11-07T05:02:06.238Z,0.00
2022-11-07T05:03:06.160Z,0.00
2022-11-07T05:04:06.098Z,0.00
2022-11-07T05:05:06.088Z,0.00
2022-11-07T05:06:06.057Z,0.00
2022-11-07T05:07:06.047Z,0.00
2022-11-07T05:08:06.035Z,0.00
2022-11-07T05:09:06.026Z,0.00
2022-11-07T05:10:09.661Z,0.00
2022-11-07T05:11:07.000Z,0.00
2022-11-07T05:12:05.992Z,0.00
2022-11-07T05:13:05.982Z,0.00
2022-11-07T05:14:05.967Z,0.00
2022-11-07T05:15:05.956Z,0.00
2022-11-07T05:16:05.975Z,0.00
2022-11-07T05:17:05.934Z,0.00
2022-11-07T05:18:05.923Z,0.00
2022-11-07T05:19:05.912Z,0.00
2022-11-07T05:20:05.906Z,0.00
2022-11-07T05:21:05.891Z,0.00
2022-11-07T05:22:05.905Z,0.00
2022-11-07T05:23:05.872Z,0.00
2022-11-07T05:24:05.857Z,0.00
2022-11-07T05:25:05.845Z,0.00
2022-11-07T05:26:05.836Z,0.00
2022-11-07T05:27:05.823Z,0.00
2022-11-07T05:28:05.827Z,0.00
2022-11-07T05:29:05.805Z,0.00
2022-11-07T05:30:05.792Z,0.00
2022-11-07T05:31:05.778Z,0.00
2022-11-07T05:32:05.883Z,0.00
2022-11-07T05:33:05.757Z,0.00
2022-11-07T05:34:07.106Z,0.00
2022-11-07T05:35:05.770Z,0.00
2022-11-07T05:36:05.724Z,0.00
2022-11-07T05:37:05.713Z,0.00
2022-11-07T05:38:05.701Z,0.00
2022-11-07T05:39:05.691Z,0.00
2022-11-07T05:40:05.686Z,0.00
2022-11-07T05:41:05.668Z,0.00
2022-11-07T05:42:05.658Z,0.00
2022-11-07T05:43:05.646Z,0.00
2022-11-07T05:44:05.636Z,0.00
2022-11-07T05:45:05.624Z,0.00
2022-11-07T05:46:05.647Z,0.00
2022-11-07T05:47:05.602Z,0.00
2022-11-07T05:48:05.610Z,0.00
2022-11-07T05:49:05.579Z,0.00
2022-11-07T05:50:05.568Z,0.00
2022-11-07T05:51:05.556Z,0.00
2022-11-07T05:52:05.554Z,0.00
2022-11-07T05:53:05.592Z,0.00
2022-11-07T05:54:05.524Z,0.00
2022-11-07T05:55:05.513Z,0.00
2022-11-07T05:56:05.503Z,0.00
2022-11-07T05:57:05.491Z,0.00
2022-11-07T05:58:07.097Z,0.00
2022-11-07T05:59:05.468Z,0.00
2022-11-07T06:00:05.459Z,0.00
2022-11-07T06:01:05.447Z,0.00
2022-11-07T06:02:05.571Z,0.00
2022-11-07T06:03:05.518Z,0.00
2022-11-07T06:04:05.436Z,0.00
2022-11-07T06:05:05.408Z,0.00
2022-11-07T06:06:05.391Z,0.00
2022-11-07T06:07:05.380Z,0.00
2022-11-07T06:08:05.369Z,0.00
2022-11-07T06:09:05.358Z,0.00
2022-11-07T06:10:05.352Z,0.00
2022-11-07T06:11:05.336Z,0.00
2022-11-07T06:12:05.325Z,0.00
2022-11-07T06:13:05.316Z,0.00
2022-11-07T06:14:05.304Z,0.00
2022-11-07T06:15:05.293Z,0.00
2022-11-07T06:16:05.312Z,0.00
2022-11-07T06:17:05.270Z,0.00
2022-11-07T06:18:05.258Z,4.00
2022-11-07T06:19:05.250Z,4.00
2022-11-07T06:20:05.338Z,4.00
2022-11-07T06:21:05.229Z,4.00
2022-11-07T06:22:05.247Z,4.00
2022-11-07T06:23:05.204Z,4.00
2022-11-07T06:24:05.217Z,0.00
2022-11-07T06:25:05.181Z,4.00
2022-11-07T06:26:05.170Z,4.00
2022-11-07T06:27:05.162Z,4.00
2022-11-07T06:28:05.173Z,4.00
2022-11-07T06:29:05.140Z,4.00
2022-11-07T06:30:05.128Z,4.00
2022-11-07T06:31:05.121Z,4.00
2022-11-07T06:32:05.105Z,4.00
2022-11-07T06:33:05.093Z,4.00
2022-11-07T06:34:05.119Z,4.00
2022-11-07T06:35:05.071Z,8.00
2022-11-07T06:36:05.122Z,8.00
2022-11-07T06:37:05.049Z,4.00
2022-11-07T06:38:05.037Z,8.00
2022-11-07T06:39:05.026Z,8.00
2022-11-07T06:40:05.021Z,8.00
2022-11-07T06:41:05.008Z,8.00
2022-11-07T06:42:04.993Z,8.00
2022-11-07T06:43:04.983Z,8.00
2022-11-07T06:44:04.971Z,8.00
2022-11-07T06:45:04.960Z,8.00
2022-11-07T06:46:04.979Z,8.00
2022-11-07T06:47:04.941Z,12.00
2022-11-07T06:48:04.927Z,12.00
2022-11-07T06:49:04.916Z,12.00
2022-11-07T06:50:04.904Z,8.00
2022-11-07T06:51:04.893Z,8.00
2022-11-07T06:52:04.903Z,12.00
2022-11-07T06:53:04.877Z,12.00
2022-11-07T06:54:04.861Z,12.00
2022-11-07T06:55:04.851Z,12.00
2022-11-07T06:56:04.837Z,12.00
2022-11-07T06:57:04.832Z,16.00
2022-11-07T06:58:04.827Z,12.00
2022-11-07T06:59:04.812Z,16.00
2022-11-07T07:00:04.794Z,16.00
2022-11-07T07:01:04.915Z,16.00
2022-11-07T07:02:04.881Z,12.00
2022-11-07T07:03:04.988Z,16.00
2022-11-07T07:04:04.754Z,16.00
2022-11-07T07:05:04.738Z,16.00
2022-11-07T07:06:04.729Z,20.00
2022-11-07T07:07:04.716Z,20.00
2022-11-07T07:08:04.721Z,20.00
2022-11-07T07:09:04.695Z,20.00
2022-11-07T07:10:04.703Z,20.00
2022-11-07T07:11:04.672Z,20.00
2022-11-07T07:12:04.661Z,24.00
2022-11-07T07:13:04.650Z,24.00
2022-11-07T07:14:10.268Z,24.00
2022-11-07T07:15:05.633Z,24.00
2022-11-07T07:16:04.617Z,28.00
2022-11-07T07:17:04.606Z,28.00
2022-11-07T07:18:04.595Z,28.00
2022-11-07T07:19:04.585Z,32.00
2022-11-07T07:20:04.574Z,32.00
2022-11-07T07:21:04.569Z,36.00
2022-11-07T07:22:04.549Z,36.00
2022-11-07T07:23:05.807Z,44.00
2022-11-07T07:24:04.638Z,48.00
2022-11-07T07:25:04.517Z,48.00
2022-11-07T07:26:04.506Z,44.00
2022-11-07T07:27:04.515Z,56.00
2022-11-07T07:28:04.483Z,68.00
2022-11-07T07:29:04.472Z,72.00
2022-11-07T07:30:04.461Z,76.00
2022-11-07T07:31:04.451Z,80.00
2022-11-07T07:32:04.445Z,84.00
2022-11-07T07:33:04.435Z,84.00
2022-11-07T07:34:04.421Z,84.00
2022-11-07T07:35:04.406Z,88.00
2022-11-07T07:36:04.398Z,88.00
2022-11-07T07:37:04.385Z,88.00
2022-11-07T07:38:04.374Z,92.00
2022-11-07T07:39:04.368Z,88.00
2022-11-07T07:40:04.479Z,92.00
2022-11-07T07:41:04.341Z,88.00
2022-11-07T07:42:04.331Z,96.00
2022-11-07T07:43:04.318Z,92.00
2022-11-07T07:44:04.307Z,88.00
2022-11-07T07:45:04.301Z,92.00
2022-11-07T07:46:04.290Z,88.00
2022-11-07T07:47:09.890Z,80.00
2022-11-07T07:48:05.262Z,76.00
2022-11-07T07:49:04.252Z,72.00
2022-11-07T07:50:04.242Z,64.00
2022-11-07T07:51:04.236Z,60.00
2022-11-07T07:52:04.220Z,64.00
2022-11-07T07:53:08.853Z,64.00
2022-11-07T07:54:05.194Z,68.00
2022-11-07T07:55:04.185Z,72.00
2022-11-07T07:56:04.285Z,68.00
2022-11-07T07:57:04.170Z,64.00
2022-11-07T07:58:04.152Z,68.00
2022-11-07T07:59:04.143Z,68.00
2022-11-07T08:00:04.130Z,76.00
2022-11-07T08:01:04.173Z,88.00
2022-11-07T08:02:04.241Z,100.00
2022-11-07T08:03:04.108Z,96.00
2022-11-07T08:04:04.088Z,88.00
2022-11-07T08:05:04.100Z,92.00
2022-11-07T08:06:04.064Z,108.00
2022-11-07T08:07:04.187Z,124.00
2022-11-07T08:08:04.041Z,316.00
2022-11-07T08:09:04.039Z,468.00
2022-11-07T08:10:27.079Z,540.00
2022-11-07T08:11:05.007Z,316.00
2022-11-07T08:12:04.107Z,548.00
2022-11-07T08:13:03.990Z,548.00
2022-11-07T08:14:03.974Z,564.00
2022-11-07T08:15:03.968Z,584.00
2022-11-07T08:16:03.953Z,592.00
2022-11-07T08:17:03.941Z,612.00
2022-11-07T08:18:03.956Z,628.00
2022-11-07T08:19:03.919Z,644.00
2022-11-07T08:20:03.908Z,660.00
2022-11-07T08:21:03.903Z,672.00
2022-11-07T08:22:03.886Z,688.00
2022-11-07T08:23:03.875Z,696.00
2022-11-07T08:24:03.865Z,708.00
2022-11-07T08:25:03.852Z,704.00
2022-11-07T08:26:03.842Z,696.00
2022-11-07T08:27:03.836Z,664.00
2022-11-07T08:28:03.933Z,548.00
2022-11-07T08:29:03.814Z,228.00
2022-11-07T08:30:03.798Z,212.00
2022-11-07T08:31:03.792Z,420.00
2022-11-07T08:32:03.776Z,448.00
2022-11-07T08:33:03.795Z,416.00
2022-11-07T08:34:03.820Z,572.00
2022-11-07T08:35:03.741Z,532.00
2022-11-07T08:36:03.734Z,568.00
2022-11-07T08:37:03.720Z,540.00
2022-11-07T08:38:03.709Z,400.00
2022-11-07T08:39:03.702Z,412.00
2022-11-07T08:40:03.688Z,420.00
2022-11-07T08:41:03.675Z,592.00
2022-11-07T08:42:03.663Z,608.00
2022-11-07T08:43:03.653Z,616.00
2022-11-07T08:44:03.683Z,608.00
2022-11-07T08:45:03.639Z,644.00
2022-11-07T08:46:03.621Z,676.00
2022-11-07T08:47:08.303Z,692.00
2022-11-07T08:48:04.596Z,640.00
2022-11-07T08:49:03.591Z,776.00
2022-11-07T08:50:03.575Z,796.00
2022-11-07T08:51:03.570Z,804.00
2022-11-07T08:52:03.555Z,812.00
2022-11-07T08:53:03.547Z,856.00
2022-11-07T08:54:03.537Z,900.00
2022-11-07T08:55:03.521Z,948.00
2022-11-07T08:56:03.509Z,1004.00
2022-11-07T08:57:03.512Z,1032.00
2022-11-07T08:58:03.507Z,932.00
2022-11-07T08:59:03.478Z,304.00
2022-11-07T09:00:03.566Z,164.00
2022-11-07T09:01:03.485Z,124.00
2022-11-07T09:02:47.453Z,108.00
2022-11-07T09:04:04.618Z,104.00
2022-11-07T09:05:03.410Z,104.00
2022-11-07T09:06:03.398Z,112.00
2022-11-07T09:07:03.388Z,120.00
2022-11-07T09:08:03.376Z,124.00
2022-11-07T09:09:03.372Z,136.00
2022-11-07T09:10:03.353Z,160.00
2022-11-07T09:11:03.348Z,176.00
2022-11-07T09:12:03.333Z,188.00
2022-11-07T09:13:03.321Z,220.00
2022-11-07T09:14:03.312Z,220.00
2022-11-07T09:15:03.321Z,244.00
2022-11-07T09:16:03.309Z,212.00
2022-11-07T09:17:03.280Z,208.00
2022-11-07T09:18:03.266Z,192.00
2022-11-07T09:19:03.257Z,180.00
2022-11-07T09:20:03.242Z,160.00
2022-11-07T09:21:03.240Z,152.00
2022-11-07T09:22:03.225Z,152.00
2022-11-07T09:23:03.210Z,164.00
2022-11-07T09:24:03.216Z,188.00
2022-11-07T09:25:03.189Z,220.00
2022-11-07T09:26:03.180Z,276.00
2022-11-07T09:27:03.174Z,340.00
2022-11-07T09:28:03.174Z,456.00
2022-11-07T09:29:03.144Z,296.00
2022-11-07T09:30:03.134Z,296.00
2022-11-07T09:31:03.130Z,364.00
2022-11-07T09:32:23.405Z,336.00
2022-11-07T09:33:04.120Z,396.00
2022-11-07T09:34:03.086Z,360.00
2022-11-07T09:35:05.140Z,368.00
2022-11-07T09:36:03.068Z,1412.00
2022-11-07T09:37:03.063Z,1216.00
2022-11-07T09:38:03.043Z,1192.00
2022-11-07T09:39:03.039Z,1636.00
2022-11-07T09:40:03.023Z,700.00
2022-11-07T09:41:03.010Z,1532.00
2022-11-07T09:42:03.003Z,1524.00
2022-11-07T09:43:02.986Z,1492.00
2022-11-07T09:44:04.791Z,1484.00
2022-11-07T09:45:02.972Z,1504.00
2022-11-07T09:46:02.958Z,1476.00
2022-11-07T09:47:02.944Z,1484.00
2022-11-07T09:48:02.966Z,1488.00
2022-11-07T09:49:02.921Z,1444.00
2022-11-07T09:50:02.913Z,1388.00
2022-11-07T09:51:02.913Z,1320.00
2022-11-07T09:52:02.889Z,1236.00
2022-11-07T09:53:02.878Z,1312.00
2022-11-07T09:54:02.868Z,1304.00
2022-11-07T09:55:02.865Z,1292.00
2022-11-07T09:56:02.846Z,1272.00
2022-11-07T09:57:02.848Z,1252.00
2022-11-07T09:58:02.821Z,1264.00
2022-11-07T09:59:02.811Z,1272.00
2022-11-07T10:00:02.799Z,1256.00
2022-11-07T10:01:02.839Z,1268.00
2022-11-07T10:02:02.832Z,1260.00
2022-11-07T10:03:02.772Z,1264.00
2022-11-07T10:04:24.617Z,1260.00
2022-11-07T10:05:03.743Z,1256.00
2022-11-07T10:06:02.733Z,1248.00
2022-11-07T10:07:02.726Z,1240.00
2022-11-07T10:08:02.712Z,1256.00
2022-11-07T10:09:02.706Z,1248.00
2022-11-07T10:10:02.689Z,1248.00
2022-11-07T10:11:02.678Z,1248.00
2022-11-07T10:12:02.666Z,1252.00
2022-11-07T10:13:02.656Z,1244.00
2022-11-07T10:14:02.644Z,1252.00
2022-11-07T10:15:02.639Z,1256.00
2022-11-07T10:16:02.621Z,1268.00
2022-11-07T10:17:02.612Z,1264.00
2022-11-07T10:18:02.599Z,1244.00
2022-11-07T10:19:02.589Z,1164.00
2022-11-07T10:20:02.602Z,1268.00
2022-11-07T10:21:31.127Z,1276.00
2022-11-07T10:22:03.554Z,1232.00
2022-11-07T10:23:02.545Z,1256.00
2022-11-07T10:24:02.536Z,1328.00
2022-11-07T10:25:02.521Z,1284.00
2022-11-07T10:26:02.511Z,1336.00
2022-11-07T10:27:02.506Z,1340.00
2022-11-07T10:28:02.490Z,1304.00
2022-11-07T10:29:02.479Z,1324.00
2022-11-07T10:30:02.468Z,1264.00
2022-11-07T10:31:02.455Z,1272.00
2022-11-07T10:32:02.445Z,1236.00
2022-11-07T10:33:02.443Z,1348.00
2022-11-07T10:34:02.426Z,1468.00
2022-11-07T10:35:02.411Z,1488.00
2022-11-07T10:36:02.425Z,1484.00
2022-11-07T10:37:02.390Z,1532.00
2022-11-07T10:38:02.378Z,1468.00
2022-11-07T10:39:02.389Z,1472.00
2022-11-07T10:40:02.358Z,1404.00
2022-11-07T10:41:02.346Z,1304.00
2022-11-07T10:42:02.335Z,1328.00
2022-11-07T10:43:02.352Z,1440.00
2022-11-07T10:44:02.313Z,1568.00
2022-11-07T10:45:02.308Z,1516.00
2022-11-07T10:46:02.290Z,1420.00
2022-11-07T10:47:02.279Z,1516.00
2022-11-07T10:48:02.267Z,1312.00
2022-11-07T10:49:02.260Z,1524.00
2022-11-07T10:50:02.246Z,1528.00
2022-11-07T10:51:02.241Z,1320.00
2022-11-07T10:52:02.362Z,1304.00
2022-11-07T10:53:02.213Z,1252.00
2022-11-07T10:54:02.205Z,1336.00
2022-11-07T10:55:02.193Z,1176.00
2022-11-07T10:56:02.179Z,1020.00
2022-11-07T10:57:02.181Z,1032.00
2022-11-07T10:58:02.158Z,1276.00
2022-11-07T10:59:02.148Z,836.00
2022-11-07T11:00:02.137Z,468.00
2022-11-07T11:01:02.275Z,488.00
2022-11-07T11:02:02.198Z,904.00
2022-11-07T11:03:02.115Z,880.00
2022-11-07T11:04:02.094Z,1068.00
2022-11-07T11:05:02.081Z,1044.00
2022-11-07T11:06:02.071Z,1000.00
2022-11-07T11:07:02.061Z,1048.00
2022-11-07T11:08:02.063Z,1092.00
2022-11-07T11:09:02.046Z,1132.00
2022-11-07T11:10:02.026Z,1296.00
2022-11-07T11:11:02.014Z,1404.00
2022-11-07T11:12:02.004Z,1496.00
2022-11-07T11:13:01.994Z,1480.00
2022-11-07T11:14:01.983Z,1400.00
2022-11-07T11:15:01.976Z,1244.00
2022-11-07T11:16:05.688Z,1552.00
2022-11-07T11:17:01.992Z,1468.00
2022-11-07T11:18:01.938Z,1420.00
2022-11-07T11:19:01.929Z,1476.00
2022-11-07T11:20:01.917Z,1536.00
2022-11-07T11:21:01.911Z,1588.00
2022-11-07T11:22:05.938Z,988.00
2022-11-07T11:23:02.883Z,1044.00
2022-11-07T11:24:01.898Z,1328.00
2022-11-07T11:25:01.865Z,1444.00
2022-11-07T11:26:01.854Z,1448.00
2022-11-07T11:27:01.846Z,1036.00
2022-11-07T11:28:01.828Z,944.00
2022-11-07T11:29:01.816Z,656.00
2022-11-07T11:30:01.809Z,556.00
2022-11-07T11:31:01.795Z,564.00
2022-11-07T11:32:01.796Z,616.00
2022-11-07T11:33:01.778Z,712.00
2022-11-07T11:34:01.763Z,1084.00
2022-11-07T11:35:01.754Z,932.00
2022-11-07T11:36:01.741Z,860.00
2022-11-07T11:37:01.730Z,992.00
2022-11-07T11:38:01.717Z,1148.00
2022-11-07T11:39:01.716Z,792.00
2022-11-07T11:40:01.716Z,820.00
2022-11-07T11:41:07.618Z,772.00
2022-11-07T11:42:02.672Z,752.00
2022-11-07T11:43:01.662Z,1112.00
2022-11-07T11:44:01.651Z,1096.00
2022-11-07T11:45:01.662Z,1192.00
2022-11-07T11:46:01.629Z,1136.00
2022-11-07T11:47:01.619Z,1480.00
2022-11-07T11:48:01.608Z,1336.00
2022-11-07T11:49:01.596Z,1464.00
2022-11-07T11:50:01.595Z,1448.00
2022-11-07T11:51:01.580Z,1504.00
2022-11-07T11:52:01.566Z,1380.00
2022-11-07T11:53:01.552Z,1408.00
2022-11-07T11:54:01.560Z,1652.00
2022-11-07T11:55:01.557Z,1552.00
2022-11-07T11:56:01.544Z,1564.00
2022-11-07T11:57:01.516Z,1600.00
2022-11-07T11:58:01.496Z,1364.00
2022-11-07T11:59:01.486Z,1252.00
2022-11-07T12:00:01.475Z,1304.00
2022-11-07T12:01:01.464Z,1516.00
2022-11-07T12:02:01.517Z,1416.00
2022-11-07T12:03:01.447Z,1576.00
2022-11-07T12:04:03.986Z,1612.00
2022-11-07T12:05:02.418Z,1684.00
2022-11-07T12:06:01.408Z,1456.00
2022-11-07T12:07:01.398Z,1432.00
2022-11-07T12:08:01.388Z,1604.00
2022-11-07T12:09:01.382Z,1344.00
2022-11-07T12:10:01.364Z,648.00
2022-11-07T12:11:01.354Z,816.00
2022-11-07T12:12:01.361Z,1360.00
2022-11-07T12:13:01.331Z,1428.00
2022-11-07T12:14:01.322Z,340.00
2022-11-07T12:15:01.316Z,448.00
2022-11-07T12:16:01.298Z,696.00
2022-11-07T12:17:01.287Z,632.00
2022-11-07T12:18:01.276Z,1080.00
2022-11-07T12:19:01.265Z,1260.00
2022-11-07T12:20:01.257Z,512.00
2022-11-07T12:21:01.250Z,332.00
2022-11-07T12:22:01.233Z,1164.00
2022-11-07T12:23:01.224Z,1316.00
2022-11-07T12:24:01.213Z,1460.00
2022-11-07T12:25:01.200Z,1240.00
2022-11-07T12:26:01.191Z,744.00
2022-11-07T12:27:01.185Z,496.00
2022-11-07T12:28:01.188Z,404.00
2022-11-07T12:29:01.156Z,432.00
2022-11-07T12:30:01.144Z,308.00
2022-11-07T12:31:01.142Z,304.00
2022-11-07T12:32:01.123Z,836.00
2022-11-07T12:33:01.127Z,1008.00
2022-11-07T12:34:01.114Z,1300.00
2022-11-07T12:35:01.096Z,1384.00
2022-11-07T12:36:01.079Z,1392.00
2022-11-07T12:37:01.068Z,1204.00
2022-11-07T12:38:01.060Z,1052.00
2022-11-07T12:39:01.053Z,580.00
2022-11-07T12:40:01.035Z,688.00
2022-11-07T12:41:01.025Z,836.00
2022-11-07T12:42:01.014Z,1164.00
2022-11-07T12:43:01.002Z,1172.00
2022-11-07T12:44:01.006Z,1152.00
2022-11-07T12:45:00.985Z,324.00
2022-11-07T12:46:00.974Z,232.00
2022-11-07T12:47:00.958Z,236.00
2022-11-07T12:48:00.948Z,320.00
2022-11-07T12:49:00.938Z,284.00
2022-11-07T12:50:00.925Z,232.00
2022-11-07T12:51:00.940Z,212.00
2022-11-07T12:52:00.905Z,252.00